sensor_id;sensor_type;location;lat;lon;timestamp;P1;durP1;ratioP1;P2;durP2;ratioP2
61407;SDS011;47274;43.054;25.146;2023-03-24T00:02:09;17.10;;;7.87;;
61407;SDS011;47274;43.054;25.146;2023-03-24T00:04:35;16.43;;;7.67;;
61407;SDS011;47274;43.054;25.146;2023-03-24T00:07:03;17.60;;;8.33;;
61407;SDS011;47274;43.054;25.146;2023-03-24T00:09:29;16.83;;;7.93;;
61407;SDS011;47274;43.054;25.146;2023-03-24T00:11:56;18.60;;;8.67;;
61407;SDS011;47274;43.054;25.146;2023-03-24T00:14:23;18.93;;;8.60;;
61407;SDS011;47274;43.054;25.146;2023-03-24T00:16:49;19.07;;;8.30;;
61407;SDS011;47274;43.054;25.146;2023-03-24T00:19:17;18.37;;;8.40;;
61407;SDS011;47274;43.054;25.146;2023-03-24T00:21:44;18.50;;;8.67;;
61407;SDS011;47274;43.054;25.146;2023-03-24T00:24:10;17.73;;;8.67;;
61407;SDS011;47274;43.054;25.146;2023-03-24T00:26:38;16.07;;;7.73;;
61407;SDS011;47274;43.054;25.146;2023-03-24T00:29:06;17.80;;;8.03;;
61407;SDS011;47274;43.054;25.146;2023-03-24T00:31:33;17.20;;;7.77;;
61407;SDS011;47274;43.054;25.146;2023-03-24T00:34:04;16.77;;;8.03;;
61407;SDS011;47274;43.054;25.146;2023-03-24T00:36:33;15.57;;;7.63;;
61407;SDS011;47274;43.054;25.146;2023-03-24T00:38:59;17.63;;;7.60;;
61407;SDS011;47274;43.054;25.146;2023-03-24T00:41:26;18.57;;;7.67;;
61407;SDS011;47274;43.054;25.146;2023-03-24T00:43:54;16.67;;;7.73;;
61407;SDS011;47274;43.054;25.146;2023-03-24T00:46:23;15.37;;;7.23;;
61407;SDS011;47274;43.054;25.146;2023-03-24T00:51:23;16.33;;;7.80;;
61407;SDS011;47274;43.054;25.146;2023-03-24T00:53:49;16.33;;;7.30;;
61407;SDS011;47274;43.054;25.146;2023-03-24T00:56:14;17.77;;;8.20;;
61407;SDS011;47274;43.054;25.146;2023-03-24T00:58:40;17.20;;;8.10;;
61407;SDS011;47274;43.054;25.146;2023-03-24T01:01:06;17.23;;;8.17;;
61407;SDS011;47274;43.054;25.146;2023-03-24T01:06:01;18.73;;;8.60;;
61407;SDS011;47274;43.054;25.146;2023-03-24T01:08:29;17.00;;;8.27;;
61407;SDS011;47274;43.054;25.146;2023-03-24T01:10:55;17.23;;;8.33;;
61407;SDS011;47274;43.054;25.146;2023-03-24T01:13:27;17.53;;;8.37;;
61407;SDS011;47274;43.054;25.146;2023-03-24T01:15:54;20.48;;;8.73;;
61407;SDS011;47274;43.054;25.146;2023-03-24T01:18:20;19.27;;;8.57;;
61407;SDS011;47274;43.054;25.146;2023-03-24T01:20:49;18.77;;;8.80;;
61407;SDS011;47274;43.054;25.146;2023-03-24T01:23:17;20.03;;;9.40;;
61407;SDS011;47274;43.054;25.146;2023-03-24T01:25:46;18.47;;;9.33;;
61407;SDS011;47274;43.054;25.146;2023-03-24T01:28:13;18.60;;;9.47;;
61407;SDS011;47274;43.054;25.146;2023-03-24T01:30:41;17.83;;;8.70;;
61407;SDS011;47274;43.054;25.146;2023-03-24T01:33:07;17.53;;;8.30;;
61407;SDS011;47274;43.054;25.146;2023-03-24T01:35:34;17.87;;;8.03;;
61407;SDS011;47274;43.054;25.146;2023-03-24T01:38:01;17.13;;;8.03;;
61407;SDS011;47274;43.054;25.146;2023-03-24T01:40:31;17.37;;;7.53;;
61407;SDS011;47274;43.054;25.146;2023-03-24T01:42:58;18.20;;;7.90;;
61407;SDS011;47274;43.054;25.146;2023-03-24T01:48:34;17.90;;;8.03;;
61407;SDS011;47274;43.054;25.146;2023-03-24T01:51:23;17.13;;;7.50;;
61407;SDS011;47274;43.054;25.146;2023-03-24T01:54:06;16.10;;;7.43;;
61407;SDS011;47274;43.054;25.146;2023-03-24T01:56:48;16.33;;;7.00;;
61407;SDS011;47274;43.054;25.146;2023-03-24T01:59:19;14.00;;;7.10;;
61407;SDS011;47274;43.054;25.146;2023-03-24T02:02:08;17.63;;;6.70;;
61407;SDS011;47274;43.054;25.146;2023-03-24T02:04:40;15.87;;;6.90;;
61407;SDS011;47274;43.054;25.146;2023-03-24T02:10:00;13.63;;;6.43;;
61407;SDS011;47274;43.054;25.146;2023-03-24T02:12:28;14.27;;;6.40;;
61407;SDS011;47274;43.054;25.146;2023-03-24T02:14:57;14.37;;;6.60;;
61407;SDS011;47274;43.054;25.146;2023-03-24T02:20:18;15.40;;;6.93;;
61407;SDS011;47274;43.054;25.146;2023-03-24T02:47:30;14.40;;;6.73;;
61407;SDS011;47274;43.054;25.146;2023-03-24T02:50:11;13.27;;;6.43;;
61407;SDS011;47274;43.054;25.146;2023-03-24T02:55:42;16.30;;;7.30;;
61407;SDS011;47274;43.054;25.146;2023-03-24T02:58:52;13.73;;;6.67;;
61407;SDS011;47274;43.054;25.146;2023-03-24T03:01:31;16.83;;;7.60;;
61407;SDS011;47274;43.054;25.146;2023-03-24T03:04:55;16.77;;;7.17;;
61407;SDS011;47274;43.054;25.146;2023-03-24T03:07:44;17.33;;;8.13;;
61407;SDS011;47274;43.054;25.146;2023-03-24T03:10:18;18.23;;;8.17;;
61407;SDS011;47274;43.054;25.146;2023-03-24T03:12:54;18.00;;;8.23;;
61407;SDS011;47274;43.054;25.146;2023-03-24T03:15:30;19.13;;;8.43;;
61407;SDS011;47274;43.054;25.146;2023-03-24T03:18:16;19.70;;;9.47;;
61407;SDS011;47274;43.054;25.146;2023-03-24T03:20:57;19.93;;;9.47;;
61407;SDS011;47274;43.054;25.146;2023-03-24T03:23:51;21.70;;;10.47;;
61407;SDS011;47274;43.054;25.146;2023-03-24T03:26:54;20.60;;;10.07;;
61407;SDS011;47274;43.054;25.146;2023-03-24T03:29:25;19.70;;;9.60;;
61407;SDS011;47274;43.054;25.146;2023-03-24T03:31:59;19.53;;;9.30;;
61407;SDS011;47274;43.054;25.146;2023-03-24T03:37:35;18.10;;;8.45;;
61407;SDS011;47274;43.054;25.146;2023-03-24T03:40:22;16.30;;;7.93;;
61407;SDS011;47274;43.054;25.146;2023-03-24T03:43:03;19.23;;;7.87;;
61407;SDS011;47274;43.054;25.146;2023-03-24T03:45:31;18.13;;;7.57;;
61407;SDS011;47274;43.054;25.146;2023-03-24T03:47:58;16.97;;;7.70;;
61407;SDS011;47274;43.054;25.146;2023-03-24T03:50:25;17.33;;;7.73;;
61407;SDS011;47274;43.054;25.146;2023-03-24T03:52:51;16.80;;;8.00;;
61407;SDS011;47274;43.054;25.146;2023-03-24T03:55:18;16.37;;;7.40;;
61407;SDS011;47274;43.054;25.146;2023-03-24T03:57:44;19.40;;;8.33;;
61407;SDS011;47274;43.054;25.146;2023-03-24T04:00:18;15.47;;;7.20;;
61407;SDS011;47274;43.054;25.146;2023-03-24T04:06:02;18.35;;;7.88;;
61407;SDS011;47274;43.054;25.146;2023-03-24T04:12:03;17.30;;;8.03;;
61407;SDS011;47274;43.054;25.146;2023-03-24T04:18:25;17.30;;;7.93;;
61407;SDS011;47274;43.054;25.146;2023-03-24T04:29:32;16.27;;;7.07;;
61407;SDS011;47274;43.054;25.146;2023-03-24T04:32:30;14.27;;;6.33;;
61407;SDS011;47274;43.054;25.146;2023-03-24T04:35:28;14.10;;;6.60;;
61407;SDS011;47274;43.054;25.146;2023-03-24T04:38:19;15.53;;;6.93;;
61407;SDS011;47274;43.054;25.146;2023-03-24T04:41:06;16.23;;;6.67;;
61407;SDS011;47274;43.054;25.146;2023-03-24T04:43:36;13.60;;;6.50;;
61407;SDS011;47274;43.054;25.146;2023-03-24T04:46:05;16.00;;;6.80;;
61407;SDS011;47274;43.054;25.146;2023-03-24T04:48:49;12.73;;;6.30;;
61407;SDS011;47274;43.054;25.146;2023-03-24T04:51:23;13.87;;;6.30;;
61407;SDS011;47274;43.054;25.146;2023-03-24T04:54:06;13.43;;;6.28;;
61407;SDS011;47274;43.054;25.146;2023-03-24T04:59:22;13.33;;;6.07;;
61407;SDS011;47274;43.054;25.146;2023-03-24T05:01:49;13.03;;;6.33;;
61407;SDS011;47274;43.054;25.146;2023-03-24T05:04:37;13.67;;;6.17;;
61407;SDS011;47274;43.054;25.146;2023-03-24T05:07:14;12.27;;;5.97;;
61407;SDS011;47274;43.054;25.146;2023-03-24T05:09:43;13.37;;;6.17;;
61407;SDS011;47274;43.054;25.146;2023-03-24T05:12:10;16.20;;;6.80;;
61407;SDS011;47274;43.054;25.146;2023-03-24T05:17:29;12.83;;;6.20;;
61407;SDS011;47274;43.054;25.146;2023-03-24T05:19:55;13.40;;;6.30;;
61407;SDS011;47274;43.054;25.146;2023-03-24T05:22:21;13.57;;;6.10;;
61407;SDS011;47274;43.054;25.146;2023-03-24T05:24:48;12.57;;;6.27;;
61407;SDS011;47274;43.054;25.146;2023-03-24T05:27:14;12.47;;;6.00;;
61407;SDS011;47274;43.054;25.146;2023-03-24T05:29:39;13.67;;;6.17;;
61407;SDS011;47274;43.054;25.146;2023-03-24T05:32:07;13.30;;;6.20;;
61407;SDS011;47274;43.054;25.146;2023-03-24T05:34:32;11.50;;;5.77;;
61407;SDS011;47274;43.054;25.146;2023-03-24T05:37:10;12.88;;;6.18;;
61407;SDS011;47274;43.054;25.146;2023-03-24T05:39:38;14.40;;;6.00;;
61407;SDS011;47274;43.054;25.146;2023-03-24T05:42:20;14.82;;;6.65;;
61407;SDS011;47274;43.054;25.146;2023-03-24T05:44:47;13.07;;;5.88;;
61407;SDS011;47274;43.054;25.146;2023-03-24T05:47:21;12.90;;;6.20;;
61407;SDS011;47274;43.054;25.146;2023-03-24T05:49:48;12.85;;;5.95;;
61407;SDS011;47274;43.054;25.146;2023-03-24T05:52:14;13.10;;;5.95;;
61407;SDS011;47274;43.054;25.146;2023-03-24T05:54:43;14.23;;;6.22;;
61407;SDS011;47274;43.054;25.146;2023-03-24T05:57:23;13.35;;;6.05;;
61407;SDS011;47274;43.054;25.146;2023-03-24T06:00:09;13.80;;;5.80;;
61407;SDS011;47274;43.054;25.146;2023-03-24T06:02:49;11.32;;;5.75;;
61407;SDS011;47274;43.054;25.146;2023-03-24T06:05:38;14.15;;;6.38;;
61407;SDS011;47274;43.054;25.146;2023-03-24T06:08:04;11.88;;;5.90;;
61407;SDS011;47274;43.054;25.146;2023-03-24T06:10:33;15.10;;;6.00;;
61407;SDS011;47274;43.054;25.146;2023-03-24T06:13:02;12.45;;;5.70;;
61407;SDS011;47274;43.054;25.146;2023-03-24T06:15:29;11.90;;;5.95;;
61407;SDS011;47274;43.054;25.146;2023-03-24T06:18:07;11.57;;;5.80;;
61407;SDS011;47274;43.054;25.146;2023-03-24T06:20:33;13.68;;;5.57;;
61407;SDS011;47274;43.054;25.146;2023-03-24T06:23:03;12.95;;;5.47;;
61407;SDS011;47274;43.054;25.146;2023-03-24T06:25:37;12.23;;;5.45;;
61407;SDS011;47274;43.054;25.146;2023-03-24T06:28:16;11.88;;;5.53;;
61407;SDS011;47274;43.054;25.146;2023-03-24T06:30:44;11.73;;;5.28;;
61407;SDS011;47274;43.054;25.146;2023-03-24T06:35:43;12.63;;;5.82;;
61407;SDS011;47274;43.054;25.146;2023-03-24T06:38:13;10.52;;;4.88;;
61407;SDS011;47274;43.054;25.146;2023-03-24T06:40:40;9.25;;;4.70;;
61407;SDS011;47274;43.054;25.146;2023-03-24T06:43:06;9.40;;;5.13;;
61407;SDS011;47274;43.054;25.146;2023-03-24T06:45:36;12.20;;;5.10;;
61407;SDS011;47274;43.054;25.146;2023-03-24T06:48:04;9.30;;;4.65;;
61407;SDS011;47274;43.054;25.146;2023-03-24T06:50:31;10.23;;;5.30;;
61407;SDS011;47274;43.054;25.146;2023-03-24T06:53:04;10.85;;;4.93;;
61407;SDS011;47274;43.054;25.146;2023-03-24T06:55:32;8.43;;;4.57;;
61407;SDS011;47274;43.054;25.146;2023-03-24T06:57:58;10.82;;;5.22;;
61407;SDS011;47274;43.054;25.146;2023-03-24T07:01:00;8.15;;;4.72;;
61407;SDS011;47274;43.054;25.146;2023-03-24T07:03:46;9.15;;;4.97;;
61407;SDS011;47274;43.054;25.146;2023-03-24T07:06:16;10.20;;;5.07;;
61407;SDS011;47274;43.054;25.146;2023-03-24T07:08:46;10.98;;;5.15;;
61407;SDS011;47274;43.054;25.146;2023-03-24T07:11:12;8.98;;;5.15;;
61407;SDS011;47274;43.054;25.146;2023-03-24T07:13:46;12.07;;;5.10;;
61407;SDS011;47274;43.054;25.146;2023-03-24T07:16:14;9.07;;;4.65;;
61407;SDS011;47274;43.054;25.146;2023-03-24T07:18:40;8.98;;;4.35;;
61407;SDS011;47274;43.054;25.146;2023-03-24T07:21:06;8.57;;;4.53;;
61407;SDS011;47274;43.054;25.146;2023-03-24T07:23:34;8.65;;;4.43;;
61407;SDS011;47274;43.054;25.146;2023-03-24T07:26:17;8.65;;;4.50;;
61407;SDS011;47274;43.054;25.146;2023-03-24T07:28:46;6.57;;;3.78;;
61407;SDS011;47274;43.054;25.146;2023-03-24T07:31:21;7.50;;;4.20;;
61407;SDS011;47274;43.054;25.146;2023-03-24T07:33:56;8.23;;;4.20;;
61407;SDS011;47274;43.054;25.146;2023-03-24T07:36:24;11.48;;;5.15;;
61407;SDS011;47274;43.054;25.146;2023-03-24T07:38:49;8.20;;;4.25;;
61407;SDS011;47274;43.054;25.146;2023-03-24T07:41:22;8.45;;;4.53;;
61407;SDS011;47274;43.054;25.146;2023-03-24T07:43:55;8.50;;;4.75;;
61407;SDS011;47274;43.054;25.146;2023-03-24T07:46:28;9.93;;;4.80;;
61407;SDS011;47274;43.054;25.146;2023-03-24T07:48:54;7.60;;;4.50;;
61407;SDS011;47274;43.054;25.146;2023-03-24T07:51:20;9.77;;;4.85;;
61407;SDS011;47274;43.054;25.146;2023-03-24T07:53:51;9.30;;;4.55;;
61407;SDS011;47274;43.054;25.146;2023-03-24T07:56:46;8.65;;;4.53;;
61407;SDS011;47274;43.054;25.146;2023-03-24T07:59:12;8.05;;;4.68;;
61407;SDS011;47274;43.054;25.146;2023-03-24T08:01:47;11.02;;;5.18;;
61407;SDS011;47274;43.054;25.146;2023-03-24T08:04:16;7.93;;;4.78;;
61407;SDS011;47274;43.054;25.146;2023-03-24T08:06:48;10.55;;;4.78;;
61407;SDS011;47274;43.054;25.146;2023-03-24T08:09:14;10.38;;;5.50;;
61407;SDS011;47274;43.054;25.146;2023-03-24T08:11:39;9.20;;;4.97;;
61407;SDS011;47274;43.054;25.146;2023-03-24T08:14:06;10.02;;;5.05;;
61407;SDS011;47274;43.054;25.146;2023-03-24T08:16:32;10.65;;;5.13;;
61407;SDS011;47274;43.054;25.146;2023-03-24T08:18:58;9.45;;;4.82;;
61407;SDS011;47274;43.054;25.146;2023-03-24T08:21:24;14.98;;;6.97;;
61407;SDS011;47274;43.054;25.146;2023-03-24T08:23:50;9.55;;;4.90;;
61407;SDS011;47274;43.054;25.146;2023-03-24T08:26:16;12.52;;;5.82;;
61407;SDS011;47274;43.054;25.146;2023-03-24T08:28:42;10.85;;;5.47;;
61407;SDS011;47274;43.054;25.146;2023-03-24T08:31:08;10.73;;;5.72;;
61407;SDS011;47274;43.054;25.146;2023-03-24T08:33:34;11.77;;;6.13;;
61407;SDS011;47274;43.054;25.146;2023-03-24T08:36:01;12.75;;;6.65;;
61407;SDS011;47274;43.054;25.146;2023-03-24T08:38:27;12.32;;;6.15;;
61407;SDS011;47274;43.054;25.146;2023-03-24T08:40:57;11.80;;;6.30;;
61407;SDS011;47274;43.054;25.146;2023-03-24T08:43:27;14.10;;;6.47;;
61407;SDS011;47274;43.054;25.146;2023-03-24T08:45:55;15.50;;;6.53;;
61407;SDS011;47274;43.054;25.146;2023-03-24T08:48:24;12.48;;;5.97;;
61407;SDS011;47274;43.054;25.146;2023-03-24T08:50:50;12.05;;;5.57;;
61407;SDS011;47274;43.054;25.146;2023-03-24T08:53:16;12.25;;;5.90;;
61407;SDS011;47274;43.054;25.146;2023-03-24T08:55:42;9.07;;;4.90;;
61407;SDS011;47274;43.054;25.146;2023-03-24T08:58:17;9.43;;;4.97;;
61407;SDS011;47274;43.054;25.146;2023-03-24T09:00:45;8.18;;;4.72;;
61407;SDS011;47274;43.054;25.146;2023-03-24T09:03:12;7.55;;;4.15;;
61407;SDS011;47274;43.054;25.146;2023-03-24T09:05:43;7.38;;;4.30;;
61407;SDS011;47274;43.054;25.146;2023-03-24T09:08:11;6.63;;;3.33;;
61407;SDS011;47274;43.054;25.146;2023-03-24T09:10:38;5.93;;;3.83;;
61407;SDS011;47274;43.054;25.146;2023-03-24T09:13:04;5.30;;;3.55;;
61407;SDS011;47274;43.054;25.146;2023-03-24T09:15:30;4.47;;;3.40;;
61407;SDS011;47274;43.054;25.146;2023-03-24T09:17:56;2.95;;;2.70;;
61407;SDS011;47274;43.054;25.146;2023-03-24T09:20:22;2.50;;;2.30;;
61407;SDS011;47274;43.054;25.146;2023-03-24T09:22:48;5.72;;;3.13;;
61407;SDS011;47274;43.054;25.146;2023-03-24T09:25:15;4.05;;;3.08;;
61407;SDS011;47274;43.054;25.146;2023-03-24T09:27:43;4.20;;;3.30;;
61407;SDS011;47274;43.054;25.146;2023-03-24T09:30:09;6.00;;;3.28;;
61407;SDS011;47274;43.054;25.146;2023-03-24T09:32:36;5.68;;;3.00;;
61407;SDS011;47274;43.054;25.146;2023-03-24T09:35:02;3.63;;;2.70;;
61407;SDS011;47274;43.054;25.146;2023-03-24T09:37:29;4.65;;;3.45;;
61407;SDS011;47274;43.054;25.146;2023-03-24T09:39:56;5.53;;;3.30;;
61407;SDS011;47274;43.054;25.146;2023-03-24T09:42:25;3.67;;;3.00;;
61407;SDS011;47274;43.054;25.146;2023-03-24T09:44:57;4.40;;;3.15;;
61407;SDS011;47274;43.054;25.146;2023-03-24T09:47:29;3.13;;;2.70;;
61407;SDS011;47274;43.054;25.146;2023-03-24T09:50:00;3.63;;;2.80;;
61407;SDS011;47274;43.054;25.146;2023-03-24T09:52:32;3.08;;;2.80;;
61407;SDS011;47274;43.054;25.146;2023-03-24T09:55:01;4.93;;;2.45;;
61407;SDS011;47274;43.054;25.146;2023-03-24T10:02:52;3.67;;;2.45;;
61407;SDS011;47274;43.054;25.146;2023-03-24T10:05:26;2.58;;;2.30;;
61407;SDS011;47274;43.054;25.146;2023-03-24T10:07:55;4.18;;;2.10;;
61407;SDS011;47274;43.054;25.146;2023-03-24T10:10:35;3.08;;;2.20;;
61407;SDS011;47274;43.054;25.146;2023-03-24T10:13:17;2.50;;;2.30;;
61407;SDS011;47274;43.054;25.146;2023-03-24T10:16:04;2.58;;;2.35;;
61407;SDS011;47274;43.054;25.146;2023-03-24T10:18:42;2.55;;;2.20;;
61407;SDS011;47274;43.054;25.146;2023-03-24T10:21:20;2.78;;;2.40;;
61407;SDS011;47274;43.054;25.146;2023-03-24T10:31:56;3.55;;;2.50;;
61407;SDS011;47274;43.054;25.146;2023-03-24T10:34:25;2.17;;;2.08;;
61407;SDS011;47274;43.054;25.146;2023-03-24T10:36:55;3.08;;;2.28;;
61407;SDS011;47274;43.054;25.146;2023-03-24T10:39:23;2.80;;;2.60;;
61407;SDS011;47274;43.054;25.146;2023-03-24T10:41:50;3.70;;;2.45;;
61407;SDS011;47274;43.054;25.146;2023-03-24T10:44:18;3.13;;;2.78;;
61407;SDS011;47274;43.054;25.146;2023-03-24T10:46:46;2.90;;;2.38;;
61407;SDS011;47274;43.054;25.146;2023-03-24T10:49:16;3.30;;;2.70;;
61407;SDS011;47274;43.054;25.146;2023-03-24T10:51:54;3.55;;;2.60;;
61407;SDS011;47274;43.054;25.146;2023-03-24T10:54:28;2.30;;;2.10;;
61407;SDS011;47274;43.054;25.146;2023-03-24T10:59:31;3.50;;;2.70;;
61407;SDS011;47274;43.054;25.146;2023-03-24T11:02:14;3.22;;;2.63;;
61407;SDS011;47274;43.054;25.146;2023-03-24T11:04:51;4.53;;;2.80;;
61407;SDS011;47274;43.054;25.146;2023-03-24T11:07:23;2.13;;;1.92;;
61407;SDS011;47274;43.054;25.146;2023-03-24T11:15:19;3.72;;;2.30;;
61407;SDS011;47274;43.054;25.146;2023-03-24T11:23:02;2.22;;;2.05;;
61407;SDS011;47274;43.054;25.146;2023-03-24T11:25:30;2.20;;;2.00;;
61407;SDS011;47274;43.054;25.146;2023-03-24T11:28:15;2.13;;;2.03;;
61407;SDS011;47274;43.054;25.146;2023-03-24T11:30:51;2.33;;;2.00;;
61407;SDS011;47274;43.054;25.146;2023-03-24T11:35:58;2.65;;;2.25;;
61407;SDS011;47274;43.054;25.146;2023-03-24T11:38:32;2.50;;;2.30;;
61407;SDS011;47274;43.054;25.146;2023-03-24T11:40:59;3.10;;;2.55;;
61407;SDS011;47274;43.054;25.146;2023-03-24T11:43:29;2.30;;;2.10;;
61407;SDS011;47274;43.054;25.146;2023-03-24T11:46:00;4.07;;;2.78;;
61407;SDS011;47274;43.054;25.146;2023-03-24T11:48:45;4.03;;;2.50;;
61407;SDS011;47274;43.054;25.146;2023-03-24T11:51:38;3.38;;;2.55;;
61407;SDS011;47274;43.054;25.146;2023-03-24T11:54:04;3.50;;;2.50;;
61407;SDS011;47274;43.054;25.146;2023-03-24T11:56:39;2.78;;;2.40;;
61407;SDS011;47274;43.054;25.146;2023-03-24T11:59:14;3.15;;;2.45;;
61407;SDS011;47274;43.054;25.146;2023-03-24T12:02:03;3.70;;;2.38;;
61407;SDS011;47274;43.054;25.146;2023-03-24T12:07:34;2.50;;;2.20;;
61407;SDS011;47274;43.054;25.146;2023-03-24T12:12:40;2.58;;;2.38;;
61407;SDS011;47274;43.054;25.146;2023-03-24T12:15:29;3.70;;;2.70;;
61407;SDS011;47274;43.054;25.146;2023-03-24T12:23:28;4.13;;;2.70;;
61407;SDS011;47274;43.054;25.146;2023-03-24T12:26:12;5.47;;;2.80;;
61407;SDS011;47274;43.054;25.146;2023-03-24T12:37:20;4.78;;;3.10;;
61407;SDS011;47274;43.054;25.146;2023-03-24T12:42:43;7.65;;;3.58;;
61407;SDS011;47274;43.054;25.146;2023-03-24T12:50:33;6.13;;;3.35;;
61407;SDS011;47274;43.054;25.146;2023-03-24T12:58:50;7.13;;;3.80;;
61407;SDS011;47274;43.054;25.146;2023-03-24T13:04:17;4.57;;;3.38;;
61407;SDS011;47274;43.054;25.146;2023-03-24T13:06:50;4.32;;;3.40;;
61407;SDS011;47274;43.054;25.146;2023-03-24T13:12:10;5.88;;;3.90;;
61407;SDS011;47274;43.054;25.146;2023-03-24T13:14:45;7.15;;;4.05;;
61407;SDS011;47274;43.054;25.146;2023-03-24T13:23:01;10.40;;;4.15;;
61407;SDS011;47274;43.054;25.146;2023-03-24T13:25:44;6.88;;;4.57;;
61407;SDS011;47274;43.054;25.146;2023-03-24T13:28:12;7.60;;;4.07;;
61407;SDS011;47274;43.054;25.146;2023-03-24T13:30:45;6.60;;;3.90;;
61407;SDS011;47274;43.054;25.146;2023-03-24T13:38:37;6.63;;;3.55;;
61407;SDS011;47274;43.054;25.146;2023-03-24T13:41:18;5.07;;;3.45;;
61407;SDS011;47274;43.054;25.146;2023-03-24T13:43:49;5.55;;;3.67;;
61407;SDS011;47274;43.054;25.146;2023-03-24T13:46:21;5.78;;;3.53;;
61407;SDS011;47274;43.054;25.146;2023-03-24T13:48:53;5.00;;;3.30;;
61407;SDS011;47274;43.054;25.146;2023-03-24T13:53:55;8.38;;;3.85;;
61407;SDS011;47274;43.054;25.146;2023-03-24T13:56:26;6.45;;;3.75;;
61407;SDS011;47274;43.054;25.146;2023-03-24T14:01:31;5.57;;;3.47;;
61407;SDS011;47274;43.054;25.146;2023-03-24T14:09:18;4.95;;;3.28;;
61407;SDS011;47274;43.054;25.146;2023-03-24T14:14:22;6.70;;;3.70;;
61407;SDS011;47274;43.054;25.146;2023-03-24T14:19:37;4.30;;;3.28;;
61407;SDS011;47274;43.054;25.146;2023-03-24T14:24:35;15.57;;;6.35;;
61407;SDS011;47274;43.054;25.146;2023-03-24T14:27:21;6.60;;;4.10;;
61407;SDS011;47274;43.054;25.146;2023-03-24T14:29:58;9.68;;;4.93;;
61407;SDS011;47274;43.054;25.146;2023-03-24T14:32:32;10.63;;;4.47;;
61407;SDS011;47274;43.054;25.146;2023-03-24T14:35:17;6.97;;;3.70;;
61407;SDS011;47274;43.054;25.146;2023-03-24T14:37:54;5.85;;;3.67;;
61407;SDS011;47274;43.054;25.146;2023-03-24T14:40:25;7.32;;;3.65;;
61407;SDS011;47274;43.054;25.146;2023-03-24T14:43:16;6.80;;;3.78;;
61407;SDS011;47274;43.054;25.146;2023-03-24T14:48:27;5.55;;;3.55;;
61407;SDS011;47274;43.054;25.146;2023-03-24T14:51:27;5.45;;;3.53;;
61407;SDS011;47274;43.054;25.146;2023-03-24T14:53:55;5.80;;;3.67;;
61407;SDS011;47274;43.054;25.146;2023-03-24T14:56:22;6.50;;;3.78;;
61407;SDS011;47274;43.054;25.146;2023-03-24T14:58:52;8.55;;;4.40;;
61407;SDS011;47274;43.054;25.146;2023-03-24T15:01:21;6.28;;;3.90;;
61407;SDS011;47274;43.054;25.146;2023-03-24T15:03:57;9.80;;;4.75;;
61407;SDS011;47274;43.054;25.146;2023-03-24T15:06:29;6.38;;;3.63;;
61407;SDS011;47274;43.054;25.146;2023-03-24T15:08:56;7.72;;;3.85;;
61407;SDS011;47274;43.054;25.146;2023-03-24T15:11:27;6.95;;;4.03;;
61407;SDS011;47274;43.054;25.146;2023-03-24T15:13:56;8.70;;;3.60;;
61407;SDS011;47274;43.054;25.146;2023-03-24T15:16:28;5.57;;;3.63;;
61407;SDS011;47274;43.054;25.146;2023-03-24T15:19:07;8.48;;;3.90;;
61407;SDS011;47274;43.054;25.146;2023-03-24T15:21:46;5.03;;;3.53;;
61407;SDS011;47274;43.054;25.146;2023-03-24T15:26:47;5.30;;;3.50;;
61407;SDS011;47274;43.054;25.146;2023-03-24T15:29:15;5.30;;;3.60;;
61407;SDS011;47274;43.054;25.146;2023-03-24T15:31:41;6.90;;;3.33;;
61407;SDS011;47274;43.054;25.146;2023-03-24T15:36:54;6.97;;;3.65;;
61407;SDS011;47274;43.054;25.146;2023-03-24T15:39:38;5.03;;;3.30;;
61407;SDS011;47274;43.054;25.146;2023-03-24T15:42:06;5.40;;;3.38;;
61407;SDS011;47274;43.054;25.146;2023-03-24T15:44:38;5.68;;;3.67;;
61407;SDS011;47274;43.054;25.146;2023-03-24T15:47:24;6.22;;;3.45;;
61407;SDS011;47274;43.054;25.146;2023-03-24T15:49:56;9.82;;;4.25;;
61407;SDS011;47274;43.054;25.146;2023-03-24T15:54:50;12.80;;;4.88;;
61407;SDS011;47274;43.054;25.146;2023-03-24T15:57:25;8.95;;;4.00;;
61407;SDS011;47274;43.054;25.146;2023-03-24T15:59:55;8.85;;;4.05;;
61407;SDS011;47274;43.054;25.146;2023-03-24T16:02:50;9.18;;;4.18;;
61407;SDS011;47274;43.054;25.146;2023-03-24T16:05:20;8.05;;;4.20;;
61407;SDS011;47274;43.054;25.146;2023-03-24T16:07:57;8.30;;;4.78;;
61407;SDS011;47274;43.054;25.146;2023-03-24T16:10:27;8.10;;;4.30;;
61407;SDS011;47274;43.054;25.146;2023-03-24T16:13:01;11.07;;;4.82;;
61407;SDS011;47274;43.054;25.146;2023-03-24T16:15:37;10.75;;;4.60;;
61407;SDS011;47274;43.054;25.146;2023-03-24T16:18:05;11.57;;;4.93;;
61407;SDS011;47274;43.054;25.146;2023-03-24T16:20:31;14.93;;;6.68;;
61407;SDS011;47274;43.054;25.146;2023-03-24T16:22:57;15.48;;;5.70;;
61407;SDS011;47274;43.054;25.146;2023-03-24T16:25:23;16.35;;;6.82;;
61407;SDS011;47274;43.054;25.146;2023-03-24T16:27:49;16.83;;;6.50;;
61407;SDS011;47274;43.054;25.146;2023-03-24T16:30:16;16.60;;;6.82;;
61407;SDS011;47274;43.054;25.146;2023-03-24T16:32:46;16.60;;;7.35;;
61407;SDS011;47274;43.054;25.146;2023-03-24T16:35:11;14.05;;;6.00;;
61407;SDS011;47274;43.054;25.146;2023-03-24T16:37:37;12.27;;;5.95;;
61407;SDS011;47274;43.054;25.146;2023-03-24T16:40:09;15.15;;;5.78;;
61407;SDS011;47274;43.054;25.146;2023-03-24T16:42:51;15.43;;;6.90;;
61407;SDS011;47274;43.054;25.146;2023-03-24T16:45:16;13.85;;;5.80;;
61407;SDS011;47274;43.054;25.146;2023-03-24T16:47:42;14.50;;;6.43;;
61407;SDS011;47274;43.054;25.146;2023-03-24T16:52:59;16.88;;;8.27;;
61407;SDS011;47274;43.054;25.146;2023-03-24T16:55:25;17.20;;;8.27;;
61407;SDS011;47274;43.054;25.146;2023-03-24T16:57:50;17.10;;;8.93;;
61407;SDS011;47274;43.054;25.146;2023-03-24T17:00:17;17.75;;;8.15;;
61407;SDS011;47274;43.054;25.146;2023-03-24T17:02:43;16.67;;;7.15;;
61407;SDS011;47274;43.054;25.146;2023-03-24T17:07:44;16.23;;;7.30;;
61407;SDS011;47274;43.054;25.146;2023-03-24T17:10:09;13.00;;;6.20;;
61407;SDS011;47274;43.054;25.146;2023-03-24T17:12:35;17.67;;;9.20;;
61407;SDS011;47274;43.054;25.146;2023-03-24T17:15:01;16.52;;;7.28;;
61407;SDS011;47274;43.054;25.146;2023-03-24T17:17:27;26.02;;;11.50;;
61407;SDS011;47274;43.054;25.146;2023-03-24T17:19:53;27.40;;;12.70;;
61407;SDS011;47274;43.054;25.146;2023-03-24T17:22:21;38.30;;;21.45;;
61407;SDS011;47274;43.054;25.146;2023-03-24T17:24:49;26.10;;;11.88;;
61407;SDS011;47274;43.054;25.146;2023-03-24T17:27:22;47.53;;;22.48;;
61407;SDS011;47274;43.054;25.146;2023-03-24T17:29:48;45.28;;;22.52;;
61407;SDS011;47274;43.054;25.146;2023-03-24T17:32:14;57.80;;;30.65;;
61407;SDS011;47274;43.054;25.146;2023-03-24T17:34:44;39.42;;;19.25;;
61407;SDS011;47274;43.054;25.146;2023-03-24T17:37:10;30.80;;;14.93;;
61407;SDS011;47274;43.054;25.146;2023-03-24T17:39:35;35.05;;;18.08;;
61407;SDS011;47274;43.054;25.146;2023-03-24T17:42:02;28.85;;;15.38;;
61407;SDS011;47274;43.054;25.146;2023-03-24T17:44:28;29.08;;;15.02;;
61407;SDS011;47274;43.054;25.146;2023-03-24T17:46:54;22.70;;;11.10;;
61407;SDS011;47274;43.054;25.146;2023-03-24T17:49:20;21.58;;;9.73;;
61407;SDS011;47274;43.054;25.146;2023-03-24T17:51:45;19.95;;;9.73;;
61407;SDS011;47274;43.054;25.146;2023-03-24T17:54:11;17.70;;;8.20;;
61407;SDS011;47274;43.054;25.146;2023-03-24T17:56:38;18.88;;;9.10;;
61407;SDS011;47274;43.054;25.146;2023-03-24T17:59:04;13.13;;;6.63;;